sensor_id;sensor_type;location;lat;lon;timestamp;P1;durP1;ratioP1;P2;durP2;ratioP2
4448;SDS011;2237;51.870;6.160;2023-05-20T00:00:14;4.68;;;1.80;;
4448;SDS011;2237;51.870;6.160;2023-05-20T00:02:41;5.22;;;1.98;;
4448;SDS011;2237;51.870;6.160;2023-05-20T00:05:07;9.45;;;2.20;;
4448;SDS011;2237;51.870;6.160;2023-05-20T00:07:34;5.65;;;1.83;;
4448;SDS011;2237;51.870;6.160;2023-05-20T00:10:01;6.53;;;2.15;;
4448;SDS011;2237;51.870;6.160;2023-05-20T00:12:27;5.93;;;2.05;;
4448;SDS011;2237;51.870;6.160;2023-05-20T00:14:53;7.45;;;2.25;;
4448;SDS011;2237;51.870;6.160;2023-05-20T00:17:21;5.32;;;1.90;;
4448;SDS011;2237;51.870;6.160;2023-05-20T00:19:47;7.95;;;2.25;;
4448;SDS011;2237;51.870;6.160;2023-05-20T00:22:14;7.35;;;2.10;;
4448;SDS011;2237;51.870;6.160;2023-05-20T00:24:40;5.57;;;2.10;;
4448;SDS011;2237;51.870;6.160;2023-05-20T00:27:07;9.00;;;2.40;;
4448;SDS011;2237;51.870;6.160;2023-05-20T00:29:33;5.82;;;2.20;;
4448;SDS011;2237;51.870;6.160;2023-05-20T00:32:00;5.47;;;2.00;;
4448;SDS011;2237;51.870;6.160;2023-05-20T00:34:26;7.32;;;2.10;;
4448;SDS011;2237;51.870;6.160;2023-05-20T00:36:53;6.32;;;2.05;;
4448;SDS011;2237;51.870;6.160;2023-05-20T00:39:19;4.68;;;1.98;;
4448;SDS011;2237;51.870;6.160;2023-05-20T00:41:45;7.05;;;2.10;;
4448;SDS011;2237;51.870;6.160;2023-05-20T00:44:12;7.03;;;2.30;;
4448;SDS011;2237;51.870;6.160;2023-05-20T00:46:38;5.25;;;1.98;;
4448;SDS011;2237;51.870;6.160;2023-05-20T00:49:05;5.07;;;2.47;;
4448;SDS011;2237;51.870;6.160;2023-05-20T00:51:31;7.00;;;2.38;;
4448;SDS011;2237;51.870;6.160;2023-05-20T00:53:58;11.68;;;3.13;;
4448;SDS011;2237;51.870;6.160;2023-05-20T00:56:25;7.13;;;2.83;;
4448;SDS011;2237;51.870;6.160;2023-05-20T00:58:52;8.90;;;2.78;;
4448;SDS011;2237;51.870;6.160;2023-05-20T01:01:18;6.93;;;2.72;;
4448;SDS011;2237;51.870;6.160;2023-05-20T01:03:45;5.47;;;2.10;;
4448;SDS011;2237;51.870;6.160;2023-05-20T01:06:12;5.35;;;2.10;;
4448;SDS011;2237;51.870;6.160;2023-05-20T01:08:38;9.05;;;2.40;;
4448;SDS011;2237;51.870;6.160;2023-05-20T01:11:05;5.68;;;1.95;;
4448;SDS011;2237;51.870;6.160;2023-05-20T01:13:42;5.43;;;2.10;;
4448;SDS011;2237;51.870;6.160;2023-05-20T01:16:12;5.68;;;2.33;;
4448;SDS011;2237;51.870;6.160;2023-05-20T01:18:42;7.25;;;2.20;;
4448;SDS011;2237;51.870;6.160;2023-05-20T01:21:13;5.10;;;2.20;;
4448;SDS011;2237;51.870;6.160;2023-05-20T01:23:40;7.68;;;2.95;;
4448;SDS011;2237;51.870;6.160;2023-05-20T01:26:07;9.65;;;2.38;;
4448;SDS011;2237;51.870;6.160;2023-05-20T01:28:38;3.97;;;2.13;;
4448;SDS011;2237;51.870;6.160;2023-05-20T01:31:08;7.35;;;2.22;;
4448;SDS011;2237;51.870;6.160;2023-05-20T01:33:39;5.28;;;2.25;;
4448;SDS011;2237;51.870;6.160;2023-05-20T01:36:07;7.60;;;2.70;;
4448;SDS011;2237;51.870;6.160;2023-05-20T01:38:35;8.07;;;2.60;;
4448;SDS011;2237;51.870;6.160;2023-05-20T01:41:03;5.90;;;2.10;;
4448;SDS011;2237;51.870;6.160;2023-05-20T01:43:31;7.47;;;2.13;;
4448;SDS011;2237;51.870;6.160;2023-05-20T01:45:58;6.20;;;2.22;;
4448;SDS011;2237;51.870;6.160;2023-05-20T01:48:24;5.45;;;2.40;;
4448;SDS011;2237;51.870;6.160;2023-05-20T01:50:50;6.32;;;2.38;;
4448;SDS011;2237;51.870;6.160;2023-05-20T01:53:17;5.55;;;2.30;;
4448;SDS011;2237;51.870;6.160;2023-05-20T01:55:43;5.63;;;2.13;;
4448;SDS011;2237;51.870;6.160;2023-05-20T01:58:10;5.20;;;2.67;;
4448;SDS011;2237;51.870;6.160;2023-05-20T02:00:36;5.47;;;2.25;;
4448;SDS011;2237;51.870;6.160;2023-05-20T02:03:02;7.88;;;1.98;;
4448;SDS011;2237;51.870;6.160;2023-05-20T02:05:29;7.25;;;2.40;;
4448;SDS011;2237;51.870;6.160;2023-05-20T02:07:56;11.57;;;2.40;;
4448;SDS011;2237;51.870;6.160;2023-05-20T02:10:22;7.68;;;1.90;;
4448;SDS011;2237;51.870;6.160;2023-05-20T02:12:48;4.68;;;2.05;;
4448;SDS011;2237;51.870;6.160;2023-05-20T02:15:15;3.97;;;2.20;;
4448;SDS011;2237;51.870;6.160;2023-05-20T02:17:41;7.97;;;2.20;;
4448;SDS011;2237;51.870;6.160;2023-05-20T02:20:08;6.47;;;2.55;;
4448;SDS011;2237;51.870;6.160;2023-05-20T02:22:35;6.30;;;2.22;;
4448;SDS011;2237;51.870;6.160;2023-05-20T02:25:01;5.90;;;2.20;;
4448;SDS011;2237;51.870;6.160;2023-05-20T02:27:28;6.03;;;2.40;;
4448;SDS011;2237;51.870;6.160;2023-05-20T02:29:54;5.15;;;1.98;;
4448;SDS011;2237;51.870;6.160;2023-05-20T02:32:22;7.63;;;2.40;;
4448;SDS011;2237;51.870;6.160;2023-05-20T02:34:53;8.68;;;2.90;;
4448;SDS011;2237;51.870;6.160;2023-05-20T02:37:20;6.72;;;2.30;;
4448;SDS011;2237;51.870;6.160;2023-05-20T02:39:46;9.63;;;2.35;;
4448;SDS011;2237;51.870;6.160;2023-05-20T02:42:13;5.40;;;2.25;;
4448;SDS011;2237;51.870;6.160;2023-05-20T02:44:39;5.40;;;2.13;;
4448;SDS011;2237;51.870;6.160;2023-05-20T02:47:06;6.40;;;2.20;;
4448;SDS011;2237;51.870;6.160;2023-05-20T02:49:32;5.68;;;2.42;;
4448;SDS011;2237;51.870;6.160;2023-05-20T02:51:59;6.95;;;2.03;;
4448;SDS011;2237;51.870;6.160;2023-05-20T02:54:25;6.25;;;2.20;;
4448;SDS011;2237;51.870;6.160;2023-05-20T02:56:51;4.15;;;2.17;;
4448;SDS011;2237;51.870;6.160;2023-05-20T02:59:18;5.05;;;2.20;;
4448;SDS011;2237;51.870;6.160;2023-05-20T03:01:44;9.43;;;2.28;;
4448;SDS011;2237;51.870;6.160;2023-05-20T03:04:10;7.70;;;2.30;;
4448;SDS011;2237;51.870;6.160;2023-05-20T03:06:37;5.50;;;2.00;;
4448;SDS011;2237;51.870;6.160;2023-05-20T03:09:09;4.57;;;2.10;;
4448;SDS011;2237;51.870;6.160;2023-05-20T03:11:35;8.02;;;2.30;;
4448;SDS011;2237;51.870;6.160;2023-05-20T03:14:02;5.28;;;2.13;;
4448;SDS011;2237;51.870;6.160;2023-05-20T03:16:28;8.85;;;2.70;;
4448;SDS011;2237;51.870;6.160;2023-05-20T03:18:54;5.18;;;2.10;;
4448;SDS011;2237;51.870;6.160;2023-05-20T03:21:21;6.95;;;2.47;;
4448;SDS011;2237;51.870;6.160;2023-05-20T03:23:49;5.35;;;2.20;;
4448;SDS011;2237;51.870;6.160;2023-05-20T03:26:15;7.15;;;2.58;;
4448;SDS011;2237;51.870;6.160;2023-05-20T03:28:42;3.20;;;2.15;;
4448;SDS011;2237;51.870;6.160;2023-05-20T03:31:08;7.93;;;2.47;;
4448;SDS011;2237;51.870;6.160;2023-05-20T03:33:34;8.07;;;2.50;;
4448;SDS011;2237;51.870;6.160;2023-05-20T03:36:01;6.10;;;2.70;;
4448;SDS011;2237;51.870;6.160;2023-05-20T03:38:27;7.15;;;2.50;;
4448;SDS011;2237;51.870;6.160;2023-05-20T03:40:55;6.80;;;2.40;;
4448;SDS011;2237;51.870;6.160;2023-05-20T03:43:21;7.40;;;2.65;;
4448;SDS011;2237;51.870;6.160;2023-05-20T03:45:48;5.82;;;3.03;;
4448;SDS011;2237;51.870;6.160;2023-05-20T03:48:14;7.45;;;2.70;;
4448;SDS011;2237;51.870;6.160;2023-05-20T03:50:41;7.55;;;4.07;;
4448;SDS011;2237;51.870;6.160;2023-05-20T03:53:07;6.63;;;2.85;;
4448;SDS011;2237;51.870;6.160;2023-05-20T03:55:34;6.47;;;2.70;;
4448;SDS011;2237;51.870;6.160;2023-05-20T03:58:01;7.70;;;3.10;;
4448;SDS011;2237;51.870;6.160;2023-05-20T04:00:27;9.30;;;2.80;;
4448;SDS011;2237;51.870;6.160;2023-05-20T04:02:57;8.55;;;2.83;;
4448;SDS011;2237;51.870;6.160;2023-05-20T04:05:23;7.05;;;3.15;;
4448;SDS011;2237;51.870;6.160;2023-05-20T04:07:50;7.30;;;3.00;;
4448;SDS011;2237;51.870;6.160;2023-05-20T04:10:17;9.60;;;3.97;;
4448;SDS011;2237;51.870;6.160;2023-05-20T04:12:45;8.70;;;2.50;;
4448;SDS011;2237;51.870;6.160;2023-05-20T04:15:12;6.38;;;2.90;;
4448;SDS011;2237;51.870;6.160;2023-05-20T04:17:38;6.80;;;2.70;;
4448;SDS011;2237;51.870;6.160;2023-05-20T04:20:05;8.52;;;3.50;;
4448;SDS011;2237;51.870;6.160;2023-05-20T04:22:33;6.10;;;2.83;;
4448;SDS011;2237;51.870;6.160;2023-05-20T04:24:59;9.13;;;3.10;;
4448;SDS011;2237;51.870;6.160;2023-05-20T04:27:28;5.93;;;2.92;;
4448;SDS011;2237;51.870;6.160;2023-05-20T04:29:55;5.88;;;2.92;;
4448;SDS011;2237;51.870;6.160;2023-05-20T04:32:23;10.65;;;2.85;;
4448;SDS011;2237;51.870;6.160;2023-05-20T04:34:51;6.38;;;2.92;;
4448;SDS011;2237;51.870;6.160;2023-05-20T04:37:19;6.72;;;3.08;;
4448;SDS011;2237;51.870;6.160;2023-05-20T04:39:45;6.88;;;2.92;;
4448;SDS011;2237;51.870;6.160;2023-05-20T04:42:14;5.85;;;2.70;;
4448;SDS011;2237;51.870;6.160;2023-05-20T04:44:43;6.60;;;2.95;;
4448;SDS011;2237;51.870;6.160;2023-05-20T04:47:13;6.90;;;2.70;;
4448;SDS011;2237;51.870;6.160;2023-05-20T04:49:40;7.10;;;3.03;;
4448;SDS011;2237;51.870;6.160;2023-05-20T04:52:07;4.45;;;2.75;;
4448;SDS011;2237;51.870;6.160;2023-05-20T04:54:33;9.32;;;2.58;;
4448;SDS011;2237;51.870;6.160;2023-05-20T04:57:00;7.28;;;2.72;;
4448;SDS011;2237;51.870;6.160;2023-05-20T04:59:26;10.85;;;2.72;;
4448;SDS011;2237;51.870;6.160;2023-05-20T05:01:52;7.30;;;2.53;;
4448;SDS011;2237;51.870;6.160;2023-05-20T05:04:19;7.80;;;2.70;;
4448;SDS011;2237;51.870;6.160;2023-05-20T05:06:48;6.32;;;2.80;;
4448;SDS011;2237;51.870;6.160;2023-05-20T05:09:15;5.75;;;2.60;;
4448;SDS011;2237;51.870;6.160;2023-05-20T05:11:41;9.95;;;2.45;;
4448;SDS011;2237;51.870;6.160;2023-05-20T05:14:08;4.68;;;2.10;;
4448;SDS011;2237;51.870;6.160;2023-05-20T05:16:34;5.68;;;2.22;;
4448;SDS011;2237;51.870;6.160;2023-05-20T05:19:01;5.68;;;2.35;;
4448;SDS011;2237;51.870;6.160;2023-05-20T05:21:27;6.22;;;2.20;;
4448;SDS011;2237;51.870;6.160;2023-05-20T05:23:53;4.78;;;2.00;;
4448;SDS011;2237;51.870;6.160;2023-05-20T05:26:23;6.03;;;2.03;;
4448;SDS011;2237;51.870;6.160;2023-05-20T05:28:49;4.30;;;1.90;;
4448;SDS011;2237;51.870;6.160;2023-05-20T05:31:16;3.95;;;1.83;;
4448;SDS011;2237;51.870;6.160;2023-05-20T05:33:42;6.60;;;3.17;;
4448;SDS011;2237;51.870;6.160;2023-05-20T05:36:08;5.78;;;2.15;;
4448;SDS011;2237;51.870;6.160;2023-05-20T05:38:35;4.15;;;2.10;;
4448;SDS011;2237;51.870;6.160;2023-05-20T05:41:01;4.38;;;1.92;;
4448;SDS011;2237;51.870;6.160;2023-05-20T05:43:28;3.97;;;1.52;;
4448;SDS011;2237;51.870;6.160;2023-05-20T05:45:54;3.58;;;1.70;;
4448;SDS011;2237;51.870;6.160;2023-05-20T05:48:21;4.03;;;1.80;;
4448;SDS011;2237;51.870;6.160;2023-05-20T05:50:48;3.95;;;1.92;;
4448;SDS011;2237;51.870;6.160;2023-05-20T05:53:14;4.80;;;1.92;;
4448;SDS011;2237;51.870;6.160;2023-05-20T05:55:41;3.30;;;1.73;;
4448;SDS011;2237;51.870;6.160;2023-05-20T05:58:07;4.40;;;1.42;;
4448;SDS011;2237;51.870;6.160;2023-05-20T06:00:34;5.07;;;1.80;;
4448;SDS011;2237;51.870;6.160;2023-05-20T06:03:00;5.05;;;1.75;;
4448;SDS011;2237;51.870;6.160;2023-05-20T06:05:27;3.20;;;1.60;;
4448;SDS011;2237;51.870;6.160;2023-05-20T06:07:55;3.42;;;1.60;;
4448;SDS011;2237;51.870;6.160;2023-05-20T06:10:21;3.70;;;1.98;;
4448;SDS011;2237;51.870;6.160;2023-05-20T06:12:48;3.25;;;1.70;;
4448;SDS011;2237;51.870;6.160;2023-05-20T06:15:14;3.65;;;1.92;;
4448;SDS011;2237;51.870;6.160;2023-05-20T06:17:41;4.68;;;1.90;;
4448;SDS011;2237;51.870;6.160;2023-05-20T06:20:07;4.00;;;1.63;;
4448;SDS011;2237;51.870;6.160;2023-05-20T06:22:34;3.13;;;1.55;;
4448;SDS011;2237;51.870;6.160;2023-05-20T06:25:00;3.50;;;1.63;;
4448;SDS011;2237;51.870;6.160;2023-05-20T06:27:27;4.78;;;1.80;;
4448;SDS011;2237;51.870;6.160;2023-05-20T06:29:54;4.15;;;1.60;;
4448;SDS011;2237;51.870;6.160;2023-05-20T06:32:20;4.55;;;1.80;;
4448;SDS011;2237;51.870;6.160;2023-05-20T06:34:47;6.45;;;1.85;;
4448;SDS011;2237;51.870;6.160;2023-05-20T06:37:13;4.70;;;1.77;;
4448;SDS011;2237;51.870;6.160;2023-05-20T06:39:39;3.95;;;1.73;;
4448;SDS011;2237;51.870;6.160;2023-05-20T06:42:06;3.15;;;1.65;;
4448;SDS011;2237;51.870;6.160;2023-05-20T06:44:32;7.53;;;1.50;;
4448;SDS011;2237;51.870;6.160;2023-05-20T06:46:58;5.28;;;1.63;;
4448;SDS011;2237;51.870;6.160;2023-05-20T06:49:25;3.28;;;1.45;;
4448;SDS011;2237;51.870;6.160;2023-05-20T06:51:51;3.92;;;1.63;;
4448;SDS011;2237;51.870;6.160;2023-05-20T06:54:18;3.17;;;1.63;;
4448;SDS011;2237;51.870;6.160;2023-05-20T06:56:44;3.65;;;1.25;;
4448;SDS011;2237;51.870;6.160;2023-05-20T06:59:10;2.63;;;1.60;;
4448;SDS011;2237;51.870;6.160;2023-05-20T07:01:37;5.47;;;1.67;;
4448;SDS011;2237;51.870;6.160;2023-05-20T07:04:03;5.68;;;2.00;;
4448;SDS011;2237;51.870;6.160;2023-05-20T07:06:30;2.83;;;1.75;;
4448;SDS011;2237;51.870;6.160;2023-05-20T07:08:56;5.72;;;2.10;;
4448;SDS011;2237;51.870;6.160;2023-05-20T07:11:23;2.10;;;1.27;;
4448;SDS011;2237;51.870;6.160;2023-05-20T07:13:49;2.70;;;1.70;;
4448;SDS011;2237;51.870;6.160;2023-05-20T07:16:16;4.88;;;1.70;;
4448;SDS011;2237;51.870;6.160;2023-05-20T07:18:42;3.22;;;1.70;;
4448;SDS011;2237;51.870;6.160;2023-05-20T07:21:09;3.90;;;2.00;;
4448;SDS011;2237;51.870;6.160;2023-05-20T07:23:35;3.70;;;1.88;;
4448;SDS011;2237;51.870;6.160;2023-05-20T07:26:01;4.10;;;1.52;;
4448;SDS011;2237;51.870;6.160;2023-05-20T07:28:28;2.50;;;1.50;;
4448;SDS011;2237;51.870;6.160;2023-05-20T07:30:54;2.78;;;1.80;;
4448;SDS011;2237;51.870;6.160;2023-05-20T07:33:22;14.10;;;1.95;;
4448;SDS011;2237;51.870;6.160;2023-05-20T07:35:48;4.10;;;1.90;;
4448;SDS011;2237;51.870;6.160;2023-05-20T07:38:15;6.60;;;1.95;;
4448;SDS011;2237;51.870;6.160;2023-05-20T07:40:41;4.78;;;1.85;;
4448;SDS011;2237;51.870;6.160;2023-05-20T07:43:08;3.92;;;1.70;;
4448;SDS011;2237;51.870;6.160;2023-05-20T07:45:34;2.60;;;1.75;;
4448;SDS011;2237;51.870;6.160;2023-05-20T07:48:04;3.13;;;1.60;;
4448;SDS011;2237;51.870;6.160;2023-05-20T07:50:31;3.28;;;1.50;;
4448;SDS011;2237;51.870;6.160;2023-05-20T07:52:59;4.20;;;1.90;;
4448;SDS011;2237;51.870;6.160;2023-05-20T07:55:25;3.22;;;1.80;;
4448;SDS011;2237;51.870;6.160;2023-05-20T07:57:52;2.85;;;1.80;;
4448;SDS011;2237;51.870;6.160;2023-05-20T08:00:18;2.25;;;1.48;;
4448;SDS011;2237;51.870;6.160;2023-05-20T08:02:45;3.53;;;1.60;;
4448;SDS011;2237;51.870;6.160;2023-05-20T08:05:12;5.97;;;2.03;;
4448;SDS011;2237;51.870;6.160;2023-05-20T08:07:39;5.25;;;1.85;;
4448;SDS011;2237;51.870;6.160;2023-05-20T08:10:06;2.88;;;1.85;;
4448;SDS011;2237;51.870;6.160;2023-05-20T08:12:32;4.80;;;2.00;;
4448;SDS011;2237;51.870;6.160;2023-05-20T08:14:59;2.95;;;1.70;;
4448;SDS011;2237;51.870;6.160;2023-05-20T08:17:25;3.35;;;1.88;;
4448;SDS011;2237;51.870;6.160;2023-05-20T08:19:52;6.35;;;1.77;;
4448;SDS011;2237;51.870;6.160;2023-05-20T08:22:18;5.72;;;1.45;;
4448;SDS011;2237;51.870;6.160;2023-05-20T08:24:45;10.35;;;2.25;;
4448;SDS011;2237;51.870;6.160;2023-05-20T08:27:11;2.55;;;1.55;;
4448;SDS011;2237;51.870;6.160;2023-05-20T08:29:38;2.70;;;1.65;;
4448;SDS011;2237;51.870;6.160;2023-05-20T08:32:04;6.30;;;1.88;;
4448;SDS011;2237;51.870;6.160;2023-05-20T08:34:31;5.03;;;1.70;;
4448;SDS011;2237;51.870;6.160;2023-05-20T08:36:57;5.80;;;1.55;;
4448;SDS011;2237;51.870;6.160;2023-05-20T08:39:24;4.00;;;1.60;;
4448;SDS011;2237;51.870;6.160;2023-05-20T08:41:52;3.75;;;1.65;;
4448;SDS011;2237;51.870;6.160;2023-05-20T08:44:18;2.63;;;1.70;;
4448;SDS011;2237;51.870;6.160;2023-05-20T08:46:46;3.25;;;1.40;;
4448;SDS011;2237;51.870;6.160;2023-05-20T08:49:14;4.63;;;1.60;;
4448;SDS011;2237;51.870;6.160;2023-05-20T08:51:40;4.68;;;1.33;;
4448;SDS011;2237;51.870;6.160;2023-05-20T08:54:08;2.20;;;1.35;;
4448;SDS011;2237;51.870;6.160;2023-05-20T08:56:36;2.65;;;1.20;;
4448;SDS011;2237;51.870;6.160;2023-05-20T08:59:04;3.38;;;1.58;;
4448;SDS011;2237;51.870;6.160;2023-05-20T09:01:31;3.28;;;1.33;;
4448;SDS011;2237;51.870;6.160;2023-05-20T09:04:00;1.80;;;1.20;;
4448;SDS011;2237;51.870;6.160;2023-05-20T09:06:40;3.70;;;1.40;;
4448;SDS011;2237;51.870;6.160;2023-05-20T09:09:11;3.83;;;1.50;;
4448;SDS011;2237;51.870;6.160;2023-05-20T09:11:39;3.00;;;1.40;;
4448;SDS011;2237;51.870;6.160;2023-05-20T09:14:07;2.20;;;1.20;;
4448;SDS011;2237;51.870;6.160;2023-05-20T09:16:34;2.20;;;1.33;;
4448;SDS011;2237;51.870;6.160;2023-05-20T09:19:01;1.88;;;1.10;;
4448;SDS011;2237;51.870;6.160;2023-05-20T09:21:27;3.90;;;1.45;;
4448;SDS011;2237;51.870;6.160;2023-05-20T09:23:55;1.98;;;0.98;;
4448;SDS011;2237;51.870;6.160;2023-05-20T09:26:27;5.72;;;1.45;;
4448;SDS011;2237;51.870;6.160;2023-05-20T09:28:55;3.13;;;1.65;;
4448;SDS011;2237;51.870;6.160;2023-05-20T09:31:26;3.30;;;1.65;;
4448;SDS011;2237;51.870;6.160;2023-05-20T09:33:56;10.52;;;2.50;;
4448;SDS011;2237;51.870;6.160;2023-05-20T09:36:22;3.03;;;1.35;;
4448;SDS011;2237;51.870;6.160;2023-05-20T09:38:53;6.25;;;1.65;;
4448;SDS011;2237;51.870;6.160;2023-05-20T09:41:25;3.30;;;1.45;;
4448;SDS011;2237;51.870;6.160;2023-05-20T09:43:59;5.00;;;1.55;;
4448;SDS011;2237;51.870;6.160;2023-05-20T09:46:26;5.45;;;1.23;;
4448;SDS011;2237;51.870;6.160;2023-05-20T09:48:53;7.25;;;1.70;;
4448;SDS011;2237;51.870;6.160;2023-05-20T09:51:20;8.88;;;1.85;;
4448;SDS011;2237;51.870;6.160;2023-05-20T09:53:48;12.93;;;3.03;;
4448;SDS011;2237;51.870;6.160;2023-05-20T09:56:17;14.70;;;2.47;;
4448;SDS011;2237;51.870;6.160;2023-05-20T09:58:47;10.23;;;2.00;;
4448;SDS011;2237;51.870;6.160;2023-05-20T10:01:14;12.07;;;2.58;;
4448;SDS011;2237;51.870;6.160;2023-05-20T10:03:41;4.72;;;1.48;;
4448;SDS011;2237;51.870;6.160;2023-05-20T10:12:18;2.30;;;1.10;;
4448;SDS011;2237;51.870;6.160;2023-05-20T10:15:03;3.80;;;1.00;;
4448;SDS011;2237;51.870;6.160;2023-05-20T10:20:51;3.05;;;1.20;;
4448;SDS011;2237;51.870;6.160;2023-05-20T10:23:27;3.35;;;1.25;;
4448;SDS011;2237;51.870;6.160;2023-05-20T10:25:56;3.10;;;1.00;;
4448;SDS011;2237;51.870;6.160;2023-05-20T10:28:26;5.85;;;1.15;;
4448;SDS011;2237;51.870;6.160;2023-05-20T10:30:56;5.75;;;1.10;;
4448;SDS011;2237;51.870;6.160;2023-05-20T10:33:24;3.78;;;1.30;;
4448;SDS011;2237;51.870;6.160;2023-05-20T10:35:53;20.80;;;2.92;;
4448;SDS011;2237;51.870;6.160;2023-05-20T10:38:23;12.33;;;1.93;;
4448;SDS011;2237;51.870;6.160;2023-05-20T10:40:50;9.43;;;1.98;;
4448;SDS011;2237;51.870;6.160;2023-05-20T10:43:24;11.95;;;1.48;;
4448;SDS011;2237;51.870;6.160;2023-05-20T10:45:54;5.25;;;1.08;;
4448;SDS011;2237;51.870;6.160;2023-05-20T10:48:23;22.10;;;2.50;;
4448;SDS011;2237;51.870;6.160;2023-05-20T10:51:00;7.10;;;1.38;;
4448;SDS011;2237;51.870;6.160;2023-05-20T10:53:37;18.13;;;2.50;;
4448;SDS011;2237;51.870;6.160;2023-05-20T10:56:04;17.95;;;1.85;;
4448;SDS011;2237;51.870;6.160;2023-05-20T10:58:37;15.43;;;2.15;;
4448;SDS011;2237;51.870;6.160;2023-05-20T11:01:04;10.35;;;1.77;;
4448;SDS011;2237;51.870;6.160;2023-05-20T11:03:31;3.42;;;1.38;;
4448;SDS011;2237;51.870;6.160;2023-05-20T11:06:00;6.95;;;1.60;;
4448;SDS011;2237;51.870;6.160;2023-05-20T11:08:28;4.68;;;1.33;;
4448;SDS011;2237;51.870;6.160;2023-05-20T11:10:56;1.65;;;0.95;;
4448;SDS011;2237;51.870;6.160;2023-05-20T11:13:23;1.65;;;1.00;;
4448;SDS011;2237;51.870;6.160;2023-05-20T11:15:50;2.90;;;1.00;;
4448;SDS011;2237;51.870;6.160;2023-05-20T11:18:17;4.28;;;1.25;;
4448;SDS011;2237;51.870;6.160;2023-05-20T11:20:44;2.88;;;1.20;;
4448;SDS011;2237;51.870;6.160;2023-05-20T11:23:12;3.03;;;0.95;;
4448;SDS011;2237;51.870;6.160;2023-05-20T11:25:40;1.98;;;0.80;;
4448;SDS011;2237;51.870;6.160;2023-05-20T11:28:12;2.00;;;1.10;;
4448;SDS011;2237;51.870;6.160;2023-05-20T11:30:40;2.75;;;1.00;;
4448;SDS011;2237;51.870;6.160;2023-05-20T11:33:10;2.42;;;1.10;;
4448;SDS011;2237;51.870;6.160;2023-05-20T11:35:43;3.97;;;1.60;;
4448;SDS011;2237;51.870;6.160;2023-05-20T11:38:19;2.63;;;1.00;;
4448;SDS011;2237;51.870;6.160;2023-05-20T11:40:49;3.55;;;1.30;;
4448;SDS011;2237;51.870;6.160;2023-05-20T11:43:17;3.83;;;1.35;;
4448;SDS011;2237;51.870;6.160;2023-05-20T11:45:45;3.65;;;1.48;;
4448;SDS011;2237;51.870;6.160;2023-05-20T11:48:18;3.45;;;1.42;;
4448;SDS011;2237;51.870;6.160;2023-05-20T11:50:45;2.15;;;0.95;;
4448;SDS011;2237;51.870;6.160;2023-05-20T11:53:16;1.90;;;1.20;;
4448;SDS011;2237;51.870;6.160;2023-05-20T11:58:14;1.80;;;1.17;;
4448;SDS011;2237;51.870;6.160;2023-05-20T12:00:42;4.30;;;1.48;;
4448;SDS011;2237;51.870;6.160;2023-05-20T12:03:14;1.05;;;0.50;;
4448;SDS011;2237;51.870;6.160;2023-05-20T12:05:42;3.65;;;1.48;;
4448;SDS011;2237;51.870;6.160;2023-05-20T12:08:08;4.32;;;1.30;;
4448;SDS011;2237;51.870;6.160;2023-05-20T12:10:35;3.03;;;1.25;;
4448;SDS011;2237;51.870;6.160;2023-05-20T12:13:04;3.05;;;1.10;;
4448;SDS011;2237;51.870;6.160;2023-05-20T12:15:34;1.98;;;1.02;;
4448;SDS011;2237;51.870;6.160;2023-05-20T12:18:01;3.17;;;1.27;;
4448;SDS011;2237;51.870;6.160;2023-05-20T12:20:28;2.28;;;1.08;;
4448;SDS011;2237;51.870;6.160;2023-05-20T12:22:56;3.80;;;1.00;;
4448;SDS011;2237;51.870;6.160;2023-05-20T12:25:22;2.95;;;1.10;;
4448;SDS011;2237;51.870;6.160;2023-05-20T12:27:49;1.75;;;0.93;;
4448;SDS011;2237;51.870;6.160;2023-05-20T12:30:19;1.30;;;0.90;;
4448;SDS011;2237;51.870;6.160;2023-05-20T12:32:47;2.22;;;0.88;;
4448;SDS011;2237;51.870;6.160;2023-05-20T12:37:50;2.05;;;1.17;;
4448;SDS011;2237;51.870;6.160;2023-05-20T12:40:16;5.32;;;1.20;;
4448;SDS011;2237;51.870;6.160;2023-05-20T12:42:43;4.05;;;1.10;;
4448;SDS011;2237;51.870;6.160;2023-05-20T12:45:09;2.15;;;1.20;;
4448;SDS011;2237;51.870;6.160;2023-05-20T12:47:36;2.88;;;1.20;;
4448;SDS011;2237;51.870;6.160;2023-05-20T12:50:02;1.85;;;1.20;;
4448;SDS011;2237;51.870;6.160;2023-05-20T12:52:30;2.35;;;0.85;;
4448;SDS011;2237;51.870;6.160;2023-05-20T12:54:56;3.55;;;1.20;;
4448;SDS011;2237;51.870;6.160;2023-05-20T12:57:22;5.57;;;1.17;;
4448;SDS011;2237;51.870;6.160;2023-05-20T12:59:49;3.88;;;1.10;;
4448;SDS011;2237;51.870;6.160;2023-05-20T13:02:16;2.90;;;1.20;;
4448;SDS011;2237;51.870;6.160;2023-05-20T13:04:42;1.55;;;1.13;;
4448;SDS011;2237;51.870;6.160;2023-05-20T13:07:09;2.58;;;1.20;;
4448;SDS011;2237;51.870;6.160;2023-05-20T13:09:35;2.95;;;1.25;;
4448;SDS011;2237;51.870;6.160;2023-05-20T13:12:02;5.28;;;1.30;;
4448;SDS011;2237;51.870;6.160;2023-05-20T13:14:28;1.70;;;1.00;;
4448;SDS011;2237;51.870;6.160;2023-05-20T13:16:55;2.33;;;1.17;;
4448;SDS011;2237;51.870;6.160;2023-05-20T13:19:21;1.63;;;1.02;;
4448;SDS011;2237;51.870;6.160;2023-05-20T13:21:48;4.13;;;1.10;;
4448;SDS011;2237;51.870;6.160;2023-05-20T13:24:16;1.83;;;1.02;;
4448;SDS011;2237;51.870;6.160;2023-05-20T13:26:43;1.35;;;0.95;;
4448;SDS011;2237;51.870;6.160;2023-05-20T13:29:10;4.07;;;0.98;;
4448;SDS011;2237;51.870;6.160;2023-05-20T13:31:37;3.95;;;1.00;;
4448;SDS011;2237;51.870;6.160;2023-05-20T13:34:04;3.28;;;1.00;;
4448;SDS011;2237;51.870;6.160;2023-05-20T13:36:31;4.20;;;1.25;;
4448;SDS011;2237;51.870;6.160;2023-05-20T13:38:57;2.65;;;0.98;;
4448;SDS011;2237;51.870;6.160;2023-05-20T13:41:24;2.97;;;1.15;;
4448;SDS011;2237;51.870;6.160;2023-05-20T13:43:51;1.95;;;0.98;;
4448;SDS011;2237;51.870;6.160;2023-05-20T13:46:18;4.32;;;1.10;;
4448;SDS011;2237;51.870;6.160;2023-05-20T13:48:44;2.33;;;1.02;;
4448;SDS011;2237;51.870;6.160;2023-05-20T13:51:11;1.40;;;1.10;;
4448;SDS011;2237;51.870;6.160;2023-05-20T13:53:38;1.85;;;1.27;;
4448;SDS011;2237;51.870;6.160;2023-05-20T13:56:04;4.10;;;0.80;;
4448;SDS011;2237;51.870;6.160;2023-05-20T13:58:34;3.80;;;1.00;;
4448;SDS011;2237;51.870;6.160;2023-05-20T14:01:02;2.53;;;1.10;;
4448;SDS011;2237;51.870;6.160;2023-05-20T14:03:30;1.75;;;1.10;;
4448;SDS011;2237;51.870;6.160;2023-05-20T14:05:58;5.22;;;1.25;;
4448;SDS011;2237;51.870;6.160;2023-05-20T14:08:26;7.43;;;1.30;;
4448;SDS011;2237;51.870;6.160;2023-05-20T14:10:52;5.90;;;1.13;;
4448;SDS011;2237;51.870;6.160;2023-05-20T14:13:21;3.63;;;1.02;;
4448;SDS011;2237;51.870;6.160;2023-05-20T14:15:48;3.38;;;1.13;;
4448;SDS011;2237;51.870;6.160;2023-05-20T14:18:18;4.53;;;1.13;;
4448;SDS011;2237;51.870;6.160;2023-05-20T14:20:45;2.78;;;0.90;;
4448;SDS011;2237;51.870;6.160;2023-05-20T14:23:12;5.10;;;1.08;;
4448;SDS011;2237;51.870;6.160;2023-05-20T14:25:39;3.60;;;0.98;;
4448;SDS011;2237;51.870;6.160;2023-05-20T14:28:06;1.42;;;1.17;;
4448;SDS011;2237;51.870;6.160;2023-05-20T14:30:32;1.30;;;0.77;;
4448;SDS011;2237;51.870;6.160;2023-05-20T14:32:59;1.27;;;0.73;;
4448;SDS011;2237;51.870;6.160;2023-05-20T14:35:26;2.72;;;0.70;;
4448;SDS011;2237;51.870;6.160;2023-05-20T14:37:52;2.15;;;0.95;;
4448;SDS011;2237;51.870;6.160;2023-05-20T14:40:19;3.17;;;0.75;;
4448;SDS011;2237;51.870;6.160;2023-05-20T14:42:45;3.03;;;0.80;;
4448;SDS011;2237;51.870;6.160;2023-05-20T14:45:12;1.17;;;0.90;;
4448;SDS011;2237;51.870;6.160;2023-05-20T14:47:38;3.78;;;0.85;;
4448;SDS011;2237;51.870;6.160;2023-05-20T14:50:05;1.98;;;1.00;;
4448;SDS011;2237;51.870;6.160;2023-05-20T14:52:32;5.93;;;1.02;;
4448;SDS011;2237;51.870;6.160;2023-05-20T14:54:59;2.33;;;1.08;;
4448;SDS011;2237;51.870;6.160;2023-05-20T14:57:25;2.45;;;1.08;;
4448;SDS011;2237;51.870;6.160;2023-05-20T14:59:52;3.53;;;1.20;;
4448;SDS011;2237;51.870;6.160;2023-05-20T15:02:18;5.93;;;0.98;;
4448;SDS011;2237;51.870;6.160;2023-05-20T15:04:45;2.45;;;0.80;;
4448;SDS011;2237;51.870;6.160;2023-05-20T15:07:13;3.75;;;0.82;;
4448;SDS011;2237;51.870;6.160;2023-05-20T15:09:40;4.97;;;0.80;;
4448;SDS011;2237;51.870;6.160;2023-05-20T15:12:07;4.00;;;0.95;;
4448;SDS011;2237;51.870;6.160;2023-05-20T15:14:35;6.05;;;1.00;;
4448;SDS011;2237;51.870;6.160;2023-05-20T15:17:02;5.50;;;2.75;;
4448;SDS011;2237;51.870;6.160;2023-05-20T15:19:30;1.63;;;1.02;;
4448;SDS011;2237;51.870;6.160;2023-05-20T15:21:57;4.53;;;1.13;;
4448;SDS011;2237;51.870;6.160;2023-05-20T15:24:24;4.90;;;1.45;;
4448;SDS011;2237;51.870;6.160;2023-05-20T15:26:51;3.72;;;0.98;;
4448;SDS011;2237;51.870;6.160;2023-05-20T15:29:18;1.98;;;0.70;;